sensor_id;sensor_type;location;lat;lon;timestamp;pressure;altitude;pressure_sealevel;temperature;humidity
28456;BME280;15682;56.742;38.866;2023-08-20T00:01:25;100050.0;;;17.5;96.3
28456;BME280;15682;56.742;38.866;2023-08-20T00:03:25;100050.0;;;17.5;96.3
28456;BME280;15682;56.742;38.866;2023-08-20T00:05:25;100050.0;;;17.5;96.3
28456;BME280;15682;56.742;38.866;2023-08-20T00:07:25;100050.0;;;17.5;96.3
28456;BME280;15682;56.742;38.866;2023-08-20T00:09:25;100050.0;;;17.5;96.3
28456;BME280;15682;56.742;38.866;2023-08-20T00:11:26;100050.0;;;17.5;96.2
28456;BME280;15682;56.742;38.866;2023-08-20T00:13:26;100050.0;;;17.5;96.2
28456;BME280;15682;56.742;38.866;2023-08-20T00:15:26;100040.0;;;17.5;96.2
28456;BME280;15682;56.742;38.866;2023-08-20T00:17:27;100040.0;;;17.5;96.2
28456;BME280;15682;56.742;38.866;2023-08-20T00:19:28;100030.0;;;17.5;96.0
28456;BME280;15682;56.742;38.866;2023-08-20T00:21:28;100030.0;;;17.5;96.6
28456;BME280;15682;56.742;38.866;2023-08-20T00:23:28;100030.0;;;17.5;96.6
28456;BME280;15682;56.742;38.866;2023-08-20T00:25:29;100030.0;;;17.5;96.6
28456;BME280;15682;56.742;38.866;2023-08-20T00:27:28;100030.0;;;17.5;96.6
28456;BME280;15682;56.742;38.866;2023-08-20T00:29:29;100030.0;;;17.5;96.6
28456;BME280;15682;56.742;38.866;2023-08-20T00:31:29;100030.0;;;17.5;96.2
28456;BME280;15682;56.742;38.866;2023-08-20T00:33:30;100030.0;;;17.5;95.9
28456;BME280;15682;56.742;38.866;2023-08-20T00:35:30;100030.0;;;17.5;96.9
28456;BME280;15682;56.742;38.866;2023-08-20T00:37:31;100030.0;;;17.5;95.6
28456;BME280;15682;56.742;38.866;2023-08-20T00:39:30;100030.0;;;17.5;96.2
28456;BME280;15682;56.742;38.866;2023-08-20T00:41:31;100030.0;;;17.7;95.6
28456;BME280;15682;56.742;38.866;2023-08-20T00:43:31;100030.0;;;17.7;95.6
28456;BME280;15682;56.742;38.866;2023-08-20T00:45:32;100030.0;;;17.7;95.6
28456;BME280;15682;56.742;38.866;2023-08-20T00:47:32;100030.0;;;17.8;97.0
28456;BME280;15682;56.742;38.866;2023-08-20T00:49:32;100030.0;;;17.8;96.3
28456;BME280;15682;56.742;38.866;2023-08-20T00:51:33;100030.0;;;17.8;95.1
28456;BME280;15682;56.742;38.866;2023-08-20T00:53:33;100030.0;;;17.8;95.1
28456;BME280;15682;56.742;38.866;2023-08-20T00:55:33;100030.0;;;17.8;95.1
28456;BME280;15682;56.742;38.866;2023-08-20T00:57:34;100030.0;;;17.8;95.1
28456;BME280;15682;56.742;38.866;2023-08-20T00:59:34;100030.0;;;17.8;95.1
28456;BME280;15682;56.742;38.866;2023-08-20T01:01:35;100030.0;;;17.9;95.1
28456;BME280;15682;56.742;38.866;2023-08-20T01:03:35;100030.0;;;18.0;95.9
28456;BME280;15682;56.742;38.866;2023-08-20T01:05:39;100030.0;;;18.0;96.0
28456;BME280;15682;56.742;38.866;2023-08-20T01:07:42;100020.0;;;18.0;95.4
28456;BME280;15682;56.742;38.866;2023-08-20T01:09:45;100020.0;;;18.0;95.4
28456;BME280;15682;56.742;38.866;2023-08-20T01:11:41;100020.0;;;17.8;95.8
28456;BME280;15682;56.742;38.866;2023-08-20T01:13:36;100020.0;;;17.8;96.0
28456;BME280;15682;56.742;38.866;2023-08-20T01:15:37;100020.0;;;17.8;96.0
28456;BME280;15682;56.742;38.866;2023-08-20T01:17:37;100020.0;;;18.0;96.0
28456;BME280;15682;56.742;38.866;2023-08-20T01:19:38;100020.0;;;18.0;96.0
28456;BME280;15682;56.742;38.866;2023-08-20T01:21:39;100000.0;;;17.9;95.7
28456;BME280;15682;56.742;38.866;2023-08-20T01:23:56;100000.0;;;17.8;97.4
28456;BME280;15682;56.742;38.866;2023-08-20T01:25:50;100000.0;;;17.8;97.4
28456;BME280;15682;56.742;38.866;2023-08-20T01:27:47;100000.0;;;17.8;99.1
28456;BME280;15682;56.742;38.866;2023-08-20T01:29:39;100000.0;;;17.8;98.2
28456;BME280;15682;56.742;38.866;2023-08-20T01:31:40;100000.0;;;17.6;100.0
28456;BME280;15682;56.742;38.866;2023-08-20T01:33:40;100000.0;;;17.5;100.0
28456;BME280;15682;56.742;38.866;2023-08-20T01:35:40;100000.0;;;17.4;100.0
28456;BME280;15682;56.742;38.866;2023-08-20T01:37:41;100000.0;;;17.4;100.0
28456;BME280;15682;56.742;38.866;2023-08-20T01:39:41;100000.0;;;17.4;100.0
28456;BME280;15682;56.742;38.866;2023-08-20T01:41:41;100000.0;;;17.3;100.0
28456;BME280;15682;56.742;38.866;2023-08-20T01:43:41;100000.0;;;17.3;100.0
28456;BME280;15682;56.742;38.866;2023-08-20T01:45:43;100000.0;;;17.4;100.0
28456;BME280;15682;56.742;38.866;2023-08-20T01:47:42;100000.0;;;17.4;100.0
28456;BME280;15682;56.742;38.866;2023-08-20T01:49:42;100000.0;;;17.3;100.0
28456;BME280;15682;56.742;38.866;2023-08-20T01:51:43;99990.0;;;17.3;100.0
28456;BME280;15682;56.742;38.866;2023-08-20T01:53:43;99970.0;;;17.2;100.0
28456;BME280;15682;56.742;38.866;2023-08-20T01:55:43;99970.0;;;17.2;100.0
28456;BME280;15682;56.742;38.866;2023-08-20T01:57:44;99970.0;;;17.2;100.0
28456;BME280;15682;56.742;38.866;2023-08-20T01:59:44;99970.0;;;17.2;100.0
28456;BME280;15682;56.742;38.866;2023-08-20T02:01:44;99970.0;;;17.1;100.0
28456;BME280;15682;56.742;38.866;2023-08-20T02:03:45;99970.0;;;17.1;100.0
28456;BME280;15682;56.742;38.866;2023-08-20T02:05:45;99980.0;;;17.1;100.0
28456;BME280;15682;56.742;38.866;2023-08-20T02:07:45;99980.0;;;17.0;100.0
28456;BME280;15682;56.742;38.866;2023-08-20T02:09:46;99980.0;;;17.2;100.0
28456;BME280;15682;56.742;38.866;2023-08-20T02:11:46;99980.0;;;17.1;100.0
28456;BME280;15682;56.742;38.866;2023-08-20T02:13:46;99990.0;;;17.0;100.0
28456;BME280;15682;56.742;38.866;2023-08-20T02:15:47;99990.0;;;17.0;100.0
28456;BME280;15682;56.742;38.866;2023-08-20T02:17:47;99990.0;;;17.0;100.0
28456;BME280;15682;56.742;38.866;2023-08-20T02:19:47;99990.0;;;17.1;100.0
28456;BME280;15682;56.742;38.866;2023-08-20T02:21:48;99990.0;;;17.1;100.0
28456;BME280;15682;56.742;38.866;2023-08-20T02:23:48;99990.0;;;17.1;100.0
28456;BME280;15682;56.742;38.866;2023-08-20T02:25:48;99990.0;;;17.1;100.0
28456;BME280;15682;56.742;38.866;2023-08-20T02:27:49;99990.0;;;17.1;100.0
28456;BME280;15682;56.742;38.866;2023-08-20T02:29:49;99990.0;;;17.3;100.0
28456;BME280;15682;56.742;38.866;2023-08-20T02:31:49;99990.0;;;17.2;100.0
28456;BME280;15682;56.742;38.866;2023-08-20T02:33:49;99990.0;;;17.2;100.0
28456;BME280;15682;56.742;38.866;2023-08-20T02:35:50;99990.0;;;17.3;100.0
28456;BME280;15682;56.742;38.866;2023-08-20T02:37:50;99990.0;;;17.1;100.0
28456;BME280;15682;56.742;38.866;2023-08-20T02:39:50;99980.0;;;17.1;100.0
28456;BME280;15682;56.742;38.866;2023-08-20T02:41:51;99980.0;;;17.2;100.0
28456;BME280;15682;56.742;38.866;2023-08-20T02:43:51;99980.0;;;17.2;100.0
28456;BME280;15682;56.742;38.866;2023-08-20T02:45:51;99980.0;;;17.2;100.0
28456;BME280;15682;56.742;38.866;2023-08-20T02:47:52;99970.0;;;17.2;100.0
28456;BME280;15682;56.742;38.866;2023-08-20T02:49:52;99950.0;;;17.2;100.0
28456;BME280;15682;56.742;38.866;2023-08-20T02:51:52;99950.0;;;17.1;100.0
28456;BME280;15682;56.742;38.866;2023-08-20T02:53:53;99950.0;;;17.1;100.0
28456;BME280;15682;56.742;38.866;2023-08-20T02:55:53;99940.0;;;17.1;100.0
28456;BME280;15682;56.742;38.866;2023-08-20T02:57:53;99940.0;;;17.1;100.0
28456;BME280;15682;56.742;38.866;2023-08-20T02:59:53;99940.0;;;17.2;100.0
28456;BME280;15682;56.742;38.866;2023-08-20T03:01:54;99940.0;;;17.3;100.0
28456;BME280;15682;56.742;38.866;2023-08-20T03:03:54;99930.0;;;17.3;100.0
28456;BME280;15682;56.742;38.866;2023-08-20T03:05:54;99920.0;;;17.3;100.0
28456;BME280;15682;56.742;38.866;2023-08-20T03:07:55;99920.0;;;17.3;100.0
28456;BME280;15682;56.742;38.866;2023-08-20T03:09:55;99920.0;;;17.3;100.0
28456;BME280;15682;56.742;38.866;2023-08-20T03:11:55;99920.0;;;17.2;100.0
28456;BME280;15682;56.742;38.866;2023-08-20T03:13:56;99920.0;;;17.2;100.0
28456;BME280;15682;56.742;38.866;2023-08-20T03:15:56;99920.0;;;17.2;100.0
28456;BME280;15682;56.742;38.866;2023-08-20T03:17:56;99920.0;;;17.2;100.0
28456;BME280;15682;56.742;38.866;2023-08-20T03:19:58;99920.0;;;17.2;100.0
28456;BME280;15682;56.742;38.866;2023-08-20T03:21:57;99920.0;;;17.4;100.0
28456;BME280;15682;56.742;38.866;2023-08-20T03:23:57;99910.0;;;17.4;100.0
28456;BME280;15682;56.742;38.866;2023-08-20T03:25:58;99900.0;;;17.4;100.0
28456;BME280;15682;56.742;38.866;2023-08-20T03:27:58;99900.0;;;17.5;100.0
28456;BME280;15682;56.742;38.866;2023-08-20T03:29:58;99900.0;;;17.5;100.0
28456;BME280;15682;56.742;38.866;2023-08-20T03:31:59;99900.0;;;17.5;100.0
28456;BME280;15682;56.742;38.866;2023-08-20T03:33:59;99900.0;;;17.5;100.0
28456;BME280;15682;56.742;38.866;2023-08-20T03:35:59;99900.0;;;17.7;100.0
28456;BME280;15682;56.742;38.866;2023-08-20T03:37:59;99900.0;;;17.7;100.0
28456;BME280;15682;56.742;38.866;2023-08-20T03:40:00;99900.0;;;17.8;100.0
28456;BME280;15682;56.742;38.866;2023-08-20T03:42:00;99900.0;;;17.8;100.0
28456;BME280;15682;56.742;38.866;2023-08-20T03:44:00;99900.0;;;17.8;100.0
28456;BME280;15682;56.742;38.866;2023-08-20T03:46:01;99900.0;;;17.8;100.0
28456;BME280;15682;56.742;38.866;2023-08-20T03:48:01;99900.0;;;17.8;100.0
28456;BME280;15682;56.742;38.866;2023-08-20T03:50:01;99900.0;;;18.0;100.0
28456;BME280;15682;56.742;38.866;2023-08-20T03:52:02;99900.0;;;18.1;100.0
28456;BME280;15682;56.742;38.866;2023-08-20T03:54:02;99900.0;;;18.1;100.0
28456;BME280;15682;56.742;38.866;2023-08-20T03:56:02;99900.0;;;18.1;100.0
28456;BME280;15682;56.742;38.866;2023-08-20T03:58:03;99900.0;;;18.2;100.0
28456;BME280;15682;56.742;38.866;2023-08-20T04:00:04;99900.0;;;18.2;100.0
28456;BME280;15682;56.742;38.866;2023-08-20T04:02:03;99900.0;;;18.3;99.6
28456;BME280;15682;56.742;38.866;2023-08-20T04:04:04;99890.0;;;18.3;99.2
28456;BME280;15682;56.742;38.866;2023-08-20T04:06:04;99890.0;;;18.5;98.3
28456;BME280;15682;56.742;38.866;2023-08-20T04:08:05;99870.0;;;18.9;96.5
28456;BME280;15682;56.742;38.866;2023-08-20T04:10:07;99870.0;;;19.5;93.7
28456;BME280;15682;56.742;38.866;2023-08-20T04:12:06;99870.0;;;19.5;92.5
28456;BME280;15682;56.742;38.866;2023-08-20T04:14:05;99860.0;;;19.7;91.7
28456;BME280;15682;56.742;38.866;2023-08-20T04:16:06;99860.0;;;19.7;92.2
28456;BME280;15682;56.742;38.866;2023-08-20T04:18:06;99860.0;;;19.7;90.7
28456;BME280;15682;56.742;38.866;2023-08-20T04:20:07;99860.0;;;19.8;89.8
28456;BME280;15682;56.742;38.866;2023-08-20T04:22:07;99860.0;;;19.8;88.8
28456;BME280;15682;56.742;38.866;2023-08-20T04:24:08;99860.0;;;19.9;88.2
28456;BME280;15682;56.742;38.866;2023-08-20T04:26:08;99860.0;;;19.9;91.0
28456;BME280;15682;56.742;38.866;2023-08-20T04:28:08;99860.0;;;20.1;92.3
28456;BME280;15682;56.742;38.866;2023-08-20T04:30:10;99860.0;;;20.3;87.0
28456;BME280;15682;56.742;38.866;2023-08-20T04:32:09;99860.0;;;20.4;86.2
28456;BME280;15682;56.742;38.866;2023-08-20T04:34:10;99830.0;;;20.2;89.3
28456;BME280;15682;56.742;38.866;2023-08-20T04:36:10;99830.0;;;20.4;87.8
28456;BME280;15682;56.742;38.866;2023-08-20T04:38:11;99830.0;;;20.4;85.1
28456;BME280;15682;56.742;38.866;2023-08-20T04:40:11;99830.0;;;20.4;86.0
28456;BME280;15682;56.742;38.866;2023-08-20T04:42:12;99830.0;;;20.4;84.7
28456;BME280;15682;56.742;38.866;2023-08-20T04:44:12;99820.0;;;20.5;84.7
28456;BME280;15682;56.742;38.866;2023-08-20T04:46:13;99820.0;;;20.5;84.7
28456;BME280;15682;56.742;38.866;2023-08-20T04:48:13;99810.0;;;20.8;84.1
28456;BME280;15682;56.742;38.866;2023-08-20T04:50:14;99810.0;;;20.9;84.1
28456;BME280;15682;56.742;38.866;2023-08-20T04:52:15;99800.0;;;20.9;84.1
28456;BME280;15682;56.742;38.866;2023-08-20T04:54:15;99790.0;;;20.9;84.6
28456;BME280;15682;56.742;38.866;2023-08-20T04:56:16;99790.0;;;20.7;84.6
28456;BME280;15682;56.742;38.866;2023-08-20T04:58:16;99780.0;;;20.8;84.6
28456;BME280;15682;56.742;38.866;2023-08-20T05:00:17;99780.0;;;20.8;84.6
28456;BME280;15682;56.742;38.866;2023-08-20T05:02:18;99780.0;;;20.8;85.6
28456;BME280;15682;56.742;38.866;2023-08-20T05:04:18;99780.0;;;20.8;84.7
28456;BME280;15682;56.742;38.866;2023-08-20T05:06:19;99780.0;;;20.6;84.7
28456;BME280;15682;56.742;38.866;2023-08-20T05:08:19;99780.0;;;20.6;84.7
28456;BME280;15682;56.742;38.866;2023-08-20T05:10:20;99780.0;;;20.6;84.7
28456;BME280;15682;56.742;38.866;2023-08-20T05:12:21;99780.0;;;20.9;85.3
28456;BME280;15682;56.742;38.866;2023-08-20T05:14:21;99780.0;;;20.9;85.3
28456;BME280;15682;56.742;38.866;2023-08-20T05:16:22;99780.0;;;20.9;85.3
28456;BME280;15682;56.742;38.866;2023-08-20T05:18:23;99780.0;;;21.1;85.3
28456;BME280;15682;56.742;38.866;2023-08-20T05:20:24;99780.0;;;21.1;85.3
28456;BME280;15682;56.742;38.866;2023-08-20T05:22:24;99780.0;;;21.2;84.7
28456;BME280;15682;56.742;38.866;2023-08-20T05:24:25;99780.0;;;21.2;84.6
28456;BME280;15682;56.742;38.866;2023-08-20T05:26:26;99780.0;;;21.3;84.6
28456;BME280;15682;56.742;38.866;2023-08-20T05:28:27;99770.0;;;21.3;84.6
28456;BME280;15682;56.742;38.866;2023-08-20T05:30:27;99750.0;;;21.4;84.6
28456;BME280;15682;56.742;38.866;2023-08-20T05:32:28;99750.0;;;21.6;84.6
28456;BME280;15682;56.742;38.866;2023-08-20T05:34:29;99750.0;;;21.6;83.7
28456;BME280;15682;56.742;38.866;2023-08-20T05:36:30;99750.0;;;21.7;81.7
28456;BME280;15682;56.742;38.866;2023-08-20T05:38:31;99740.0;;;21.6;80.2
28456;BME280;15682;56.742;38.866;2023-08-20T05:40:31;99740.0;;;21.6;80.3
28456;BME280;15682;56.742;38.866;2023-08-20T05:42:32;99740.0;;;21.6;81.2
28456;BME280;15682;56.742;38.866;2023-08-20T05:44:33;99740.0;;;21.6;82.5
28456;BME280;15682;56.742;38.866;2023-08-20T05:46:34;99740.0;;;21.7;81.5
28456;BME280;15682;56.742;38.866;2023-08-20T05:48:35;99740.0;;;21.9;81.1
28456;BME280;15682;56.742;38.866;2023-08-20T05:50:35;99740.0;;;21.9;79.4
28456;BME280;15682;56.742;38.866;2023-08-20T05:52:36;99740.0;;;22.0;79.4
28456;BME280;15682;56.742;38.866;2023-08-20T05:54:37;99730.0;;;22.0;78.8
28456;BME280;15682;56.742;38.866;2023-08-20T05:56:38;99730.0;;;22.0;78.8
28456;BME280;15682;56.742;38.866;2023-08-20T05:58:39;99730.0;;;22.0;79.0
28456;BME280;15682;56.742;38.866;2023-08-20T06:00:40;99730.0;;;22.0;79.5
28456;BME280;15682;56.742;38.866;2023-08-20T06:02:40;99730.0;;;22.2;78.9
28456;BME280;15682;56.742;38.866;2023-08-20T06:04:41;99730.0;;;22.3;78.0
28456;BME280;15682;56.742;38.866;2023-08-20T06:06:42;99730.0;;;22.5;76.8
28456;BME280;15682;56.742;38.866;2023-08-20T06:08:43;99730.0;;;22.6;76.2
28456;BME280;15682;56.742;38.866;2023-08-20T06:10:44;99730.0;;;22.7;76.9
28456;BME280;15682;56.742;38.866;2023-08-20T06:12:45;99730.0;;;22.7;77.5
28456;BME280;15682;56.742;38.866;2023-08-20T06:14:46;99730.0;;;22.6;77.5
28456;BME280;15682;56.742;38.866;2023-08-20T06:16:46;99730.0;;;22.6;76.5
28456;BME280;15682;56.742;38.866;2023-08-20T06:18:47;99730.0;;;22.8;75.3
28456;BME280;15682;56.742;38.866;2023-08-20T06:20:48;99730.0;;;23.0;73.8
28456;BME280;15682;56.742;38.866;2023-08-20T06:22:49;99740.0;;;23.0;73.0
28456;BME280;15682;56.742;38.866;2023-08-20T06:24:50;99750.0;;;23.1;73.7
28456;BME280;15682;56.742;38.866;2023-08-20T06:26:51;99750.0;;;23.4;72.8
28456;BME280;15682;56.742;38.866;2023-08-20T06:28:51;99750.0;;;23.6;73.4
28456;BME280;15682;56.742;38.866;2023-08-20T06:30:52;99750.0;;;23.6;74.2
28456;BME280;15682;56.742;38.866;2023-08-20T06:32:53;99750.0;;;23.6;74.4
28456;BME280;15682;56.742;38.866;2023-08-20T06:34:54;99750.0;;;23.6;73.3
28456;BME280;15682;56.742;38.866;2023-08-20T06:36:55;99750.0;;;23.7;72.7
28456;BME280;15682;56.742;38.866;2023-08-20T06:38:56;99750.0;;;23.7;72.7
28456;BME280;15682;56.742;38.866;2023-08-20T06:40:57;99750.0;;;23.7;72.1
28456;BME280;15682;56.742;38.866;2023-08-20T06:42:57;99750.0;;;23.7;71.4
28456;BME280;15682;56.742;38.866;2023-08-20T06:44:58;99750.0;;;23.6;71.4
28456;BME280;15682;56.742;38.866;2023-08-20T06:46:59;99750.0;;;23.6;72.5
28456;BME280;15682;56.742;38.866;2023-08-20T06:49:00;99750.0;;;23.7;72.5
28456;BME280;15682;56.742;38.866;2023-08-20T06:51:08;99750.0;;;23.7;72.5
28456;BME280;15682;56.742;38.866;2023-08-20T06:53:02;99750.0;;;23.8;71.2
28456;BME280;15682;56.742;38.866;2023-08-20T06:55:03;99750.0;;;23.8;71.2
28456;BME280;15682;56.742;38.866;2023-08-20T06:57:04;99750.0;;;23.9;71.2
28456;BME280;15682;56.742;38.866;2023-08-20T06:59:04;99750.0;;;23.9;71.2
28456;BME280;15682;56.742;38.866;2023-08-20T07:01:05;99750.0;;;24.3;70.4
28456;BME280;15682;56.742;38.866;2023-08-20T07:03:06;99750.0;;;24.5;69.1
28456;BME280;15682;56.742;38.866;2023-08-20T07:05:07;99750.0;;;24.4;71.4
28456;BME280;15682;56.742;38.866;2023-08-20T07:07:08;99750.0;;;24.2;72.6
28456;BME280;15682;56.742;38.866;2023-08-20T07:09:08;99750.0;;;24.2;75.3
28456;BME280;15682;56.742;38.866;2023-08-20T07:11:09;99750.0;;;24.5;76.3
28456;BME280;15682;56.742;38.866;2023-08-20T07:13:11;99750.0;;;24.7;73.5
28456;BME280;15682;56.742;38.866;2023-08-20T07:15:11;99750.0;;;24.5;72.0
28456;BME280;15682;56.742;38.866;2023-08-20T07:17:12;99750.0;;;24.8;74.0
28456;BME280;15682;56.742;38.866;2023-08-20T07:19:12;99750.0;;;24.8;74.8
28456;BME280;15682;56.742;38.866;2023-08-20T07:21:13;99750.0;;;25.1;77.0
28456;BME280;15682;56.742;38.866;2023-08-20T07:23:14;99750.0;;;25.1;76.3
28456;BME280;15682;56.742;38.866;2023-08-20T07:25:15;99750.0;;;24.9;77.5
28456;BME280;15682;56.742;38.866;2023-08-20T07:27:15;99750.0;;;24.7;78.8
28456;BME280;15682;56.742;38.866;2023-08-20T07:29:16;99730.0;;;24.7;79.4
28456;BME280;15682;56.742;38.866;2023-08-20T07:31:17;99730.0;;;24.7;80.4
28456;BME280;15682;56.742;38.866;2023-08-20T07:33:17;99730.0;;;24.5;80.2
28456;BME280;15682;56.742;38.866;2023-08-20T07:35:18;99730.0;;;24.3;80.9
28456;BME280;15682;56.742;38.866;2023-08-20T07:37:19;99730.0;;;24.2;80.9
28456;BME280;15682;56.742;38.866;2023-08-20T07:39:19;99730.0;;;24.2;81.6
28456;BME280;15682;56.742;38.866;2023-08-20T07:41:21;99730.0;;;24.1;82.1
28456;BME280;15682;56.742;38.866;2023-08-20T07:43:20;99730.0;;;24.3;82.9
28456;BME280;15682;56.742;38.866;2023-08-20T07:45:21;99730.0;;;24.3;82.9
28456;BME280;15682;56.742;38.866;2023-08-20T07:47:22;99730.0;;;24.3;82.9
28456;BME280;15682;56.742;38.866;2023-08-20T07:49:22;99730.0;;;24.8;82.2
28456;BME280;15682;56.742;38.866;2023-08-20T07:51:23;99730.0;;;25.3;81.4
28456;BME280;15682;56.742;38.866;2023-08-20T07:53:23;99730.0;;;25.3;80.5
28456;BME280;15682;56.742;38.866;2023-08-20T07:55:24;99730.0;;;25.5;79.0
28456;BME280;15682;56.742;38.866;2023-08-20T07:57:25;99730.0;;;25.5;78.4
28456;BME280;15682;56.742;38.866;2023-08-20T07:59:25;99730.0;;;25.3;76.9
28456;BME280;15682;56.742;38.866;2023-08-20T08:01:26;99730.0;;;25.5;76.8
28456;BME280;15682;56.742;38.866;2023-08-20T08:03:26;99730.0;;;25.5;78.2
28456;BME280;15682;56.742;38.866;2023-08-20T08:05:28;99720.0;;;25.9;77.6
28456;BME280;15682;56.742;38.866;2023-08-20T08:07:27;99720.0;;;26.2;77.3
28456;BME280;15682;56.742;38.866;2023-08-20T08:09:30;99720.0;;;25.8;78.2
28456;BME280;15682;56.742;38.866;2023-08-20T08:11:29;99720.0;;;25.7;79.4
28456;BME280;15682;56.742;38.866;2023-08-20T08:13:29;99720.0;;;25.2;79.4
28456;BME280;15682;56.742;38.866;2023-08-20T08:15:30;99720.0;;;24.9;80.2
28456;BME280;15682;56.742;38.866;2023-08-20T08:17:30;99720.0;;;24.7;82.0
28456;BME280;15682;56.742;38.866;2023-08-20T08:19:31;99720.0;;;24.5;82.0
28456;BME280;15682;56.742;38.866;2023-08-20T08:21:32;99710.0;;;24.4;82.5
28456;BME280;15682;56.742;38.866;2023-08-20T08:23:32;99710.0;;;24.2;82.8
28456;BME280;15682;56.742;38.866;2023-08-20T08:25:33;99710.0;;;24.3;83.8
28456;BME280;15682;56.742;38.866;2023-08-20T08:27:34;99710.0;;;24.3;84.4
28456;BME280;15682;56.742;38.866;2023-08-20T08:29:34;99710.0;;;24.3;83.8
28456;BME280;15682;56.742;38.866;2023-08-20T08:31:35;99710.0;;;24.3;83.5
28456;BME280;15682;56.742;38.866;2023-08-20T08:33:35;99700.0;;;24.5;83.0
28456;BME280;15682;56.742;38.866;2023-08-20T08:35:36;99700.0;;;24.5;84.3
28456;BME280;15682;56.742;38.866;2023-08-20T08:37:37;99700.0;;;24.5;83.3
28456;BME280;15682;56.742;38.866;2023-08-20T08:39:37;99700.0;;;24.9;82.4
28456;BME280;15682;56.742;38.866;2023-08-20T08:41:38;99700.0;;;25.2;82.9
28456;BME280;15682;56.742;38.866;2023-08-20T08:43:39;99700.0;;;25.3;82.1
28456;BME280;15682;56.742;38.866;2023-08-20T08:45:39;99700.0;;;26.3;80.0
28456;BME280;15682;56.742;38.866;2023-08-20T08:47:39;99700.0;;;26.3;79.2
28456;BME280;15682;56.742;38.866;2023-08-20T08:49:40;99700.0;;;25.7;80.5
28456;BME280;15682;56.742;38.866;2023-08-20T08:51:42;99700.0;;;25.1;81.0
28456;BME280;15682;56.742;38.866;2023-08-20T08:53:42;99700.0;;;24.7;83.7
28456;BME280;15682;56.742;38.866;2023-08-20T08:55:42;99690.0;;;24.5;83.2
28456;BME280;15682;56.742;38.866;2023-08-20T08:57:42;99680.0;;;24.3;83.8
28456;BME280;15682;56.742;38.866;2023-08-20T08:59:43;99680.0;;;24.3;83.8
28456;BME280;15682;56.742;38.866;2023-08-20T09:01:44;99680.0;;;24.0;84.7
28456;BME280;15682;56.742;38.866;2023-08-20T09:03:44;99680.0;;;23.7;85.2
28456;BME280;15682;56.742;38.866;2023-08-20T09:05:47;99690.0;;;23.7;85.2
28456;BME280;15682;56.742;38.866;2023-08-20T09:07:45;99690.0;;;24.1;85.2
28456;BME280;15682;56.742;38.866;2023-08-20T09:09:46;99690.0;;;24.6;84.0
28456;BME280;15682;56.742;38.866;2023-08-20T09:11:47;99690.0;;;25.0;82.2
28456;BME280;15682;56.742;38.866;2023-08-20T09:13:47;99690.0;;;24.8;83.4
28456;BME280;15682;56.742;38.866;2023-08-20T09:15:50;99690.0;;;24.2;83.4
28456;BME280;15682;56.742;38.866;2023-08-20T09:17:48;99690.0;;;24.0;84.5
28456;BME280;15682;56.742;38.866;2023-08-20T09:19:49;99690.0;;;23.6;85.7
28456;BME280;15682;56.742;38.866;2023-08-20T09:21:49;99690.0;;;23.5;86.4
28456;BME280;15682;56.742;38.866;2023-08-20T09:23:50;99680.0;;;23.3;87.2
28456;BME280;15682;56.742;38.866;2023-08-20T09:25:53;99680.0;;;23.4;87.2
28456;BME280;15682;56.742;38.866;2023-08-20T09:27:53;99680.0;;;23.4;86.7
28456;BME280;15682;56.742;38.866;2023-08-20T09:29:53;99680.0;;;23.4;86.1
28456;BME280;15682;56.742;38.866;2023-08-20T09:32:00;99680.0;;;23.3;86.2
28456;BME280;15682;56.742;38.866;2023-08-20T09:33:53;99670.0;;;23.5;86.2
28456;BME280;15682;56.742;38.866;2023-08-20T09:35:53;99670.0;;;23.5;86.2
28456;BME280;15682;56.742;38.866;2023-08-20T09:37:58;99660.0;;;23.4;86.2
28456;BME280;15682;56.742;38.866;2023-08-20T09:39:54;99660.0;;;23.4;87.2
28456;BME280;15682;56.742;38.866;2023-08-20T09:41:55;99660.0;;;23.5;86.6
28456;BME280;15682;56.742;38.866;2023-08-20T09:43:56;99660.0;;;23.5;86.6
28456;BME280;15682;56.742;38.866;2023-08-20T09:45:56;99660.0;;;23.7;86.6
28456;BME280;15682;56.742;38.866;2023-08-20T09:47:58;99660.0;;;24.0;86.6
28456;BME280;15682;56.742;38.866;2023-08-20T09:49:57;99660.0;;;24.2;86.6
28456;BME280;15682;56.742;38.866;2023-08-20T09:51:58;99670.0;;;24.3;86.9
28456;BME280;15682;56.742;38.866;2023-08-20T09:54:05;99670.0;;;24.0;86.9
28456;BME280;15682;56.742;38.866;2023-08-20T09:56:03;99670.0;;;23.7;89.3
28456;BME280;15682;56.742;38.866;2023-08-20T09:58:00;99670.0;;;23.6;89.3
28456;BME280;15682;56.742;38.866;2023-08-20T10:00:00;99670.0;;;23.4;89.3
28456;BME280;15682;56.742;38.866;2023-08-20T10:02:01;99670.0;;;23.3;88.8
28456;BME280;15682;56.742;38.866;2023-08-20T10:04:00;99650.0;;;23.3;88.8
28456;BME280;15682;56.742;38.866;2023-08-20T10:06:02;99650.0;;;23.5;88.8
28456;BME280;15682;56.742;38.866;2023-08-20T10:08:02;99650.0;;;23.8;89.9
28456;BME280;15682;56.742;38.866;2023-08-20T10:10:04;99650.0;;;23.9;88.0
28456;BME280;15682;56.742;38.866;2023-08-20T10:12:03;99650.0;;;23.9;88.0
28456;BME280;15682;56.742;38.866;2023-08-20T10:14:03;99650.0;;;24.3;86.9
28456;BME280;15682;56.742;38.866;2023-08-20T10:16:04;99650.0;;;24.6;86.0
28456;BME280;15682;56.742;38.866;2023-08-20T10:18:05;99650.0;;;24.6;85.1
28456;BME280;15682;56.742;38.866;2023-08-20T10:20:07;99650.0;;;24.7;85.1
28456;BME280;15682;56.742;38.866;2023-08-20T10:22:07;99650.0;;;24.8;85.4
28456;BME280;15682;56.742;38.866;2023-08-20T10:24:06;99650.0;;;24.5;85.4
28456;BME280;15682;56.742;38.866;2023-08-20T10:26:07;99650.0;;;24.5;85.8
28456;BME280;15682;56.742;38.866;2023-08-20T10:28:21;99650.0;;;24.0;87.0
28456;BME280;15682;56.742;38.866;2023-08-20T10:30:09;99660.0;;;22.8;89.6
28456;BME280;15682;56.742;38.866;2023-08-20T10:32:09;99670.0;;;21.7;93.4
28456;BME280;15682;56.742;38.866;2023-08-20T10:34:09;99680.0;;;21.0;94.6
28456;BME280;15682;56.742;38.866;2023-08-20T10:36:13;99680.0;;;20.8;95.1
28456;BME280;15682;56.742;38.866;2023-08-20T10:38:12;99680.0;;;20.7;97.5
28456;BME280;15682;56.742;38.866;2023-08-20T10:40:10;99680.0;;;20.7;98.7
28456;BME280;15682;56.742;38.866;2023-08-20T10:42:26;99680.0;;;20.7;97.9
28456;BME280;15682;56.742;38.866;2023-08-20T10:44:11;99670.0;;;20.7;97.8
28456;BME280;15682;56.742;38.866;2023-08-20T10:46:16;99670.0;;;20.9;97.8
28456;BME280;15682;56.742;38.866;2023-08-20T10:48:12;99660.0;;;20.9;98.4
28456;BME280;15682;56.742;38.866;2023-08-20T10:50:15;99650.0;;;20.9;99.4
28456;BME280;15682;56.742;38.866;2023-08-20T10:52:13;99650.0;;;21.0;98.5